Alexandra — WDD5677 — position and weather

sailwx.info

Track history (hours):
 
Tides and Currents Weather Stations Pressure Air Temp Water Temp Dewpoint Dewpoint Depression Visibility Wind Speed Wind Dir Waves Ship Positions

Alexandra

Owner: Weeks Marine, Inc., Cranford, NJ. More information available from US FCC via Universal Licensing System and Coast Guard Vessel Documentation Center.

Last reported at 2015-Mar-28 11:33 UTC. Time now 2015-Mar-28 12:20 UTC.
Position N 40°41' W 074°05'.

Length 40 m; draft 5 m.

Type: Tug. MMSI: 367161950.

Date/timePositionNaut miles runAvg speedWind from/ knotsBaromVisibWave heightAir tempDewpointWater temp
2015-Mar-28 11:33N 40°41' W 074°05'0 0.0
2015-Mar-28 10:33N 40°41' W 074°05'0 0.0
2015-Mar-28 09:34N 40°41' W 074°05'0 0.0
2015-Mar-28 08:33N 40°41' W 074°05'0 0.0
2015-Mar-28 07:33N 40°41' W 074°05'0 0.0
2015-Mar-28 06:33N 40°41' W 074°05'0 0.0
2015-Mar-28 05:33N 40°41' W 074°05'0 0.0
2015-Mar-28 04:33N 40°41' W 074°05'0 0.0
2015-Mar-28 03:33N 40°41' W 074°05'0 0.0
2015-Mar-28 02:33N 40°41' W 074°05'0 0.0
2015-Mar-28 01:34N 40°41' W 074°05'0 0.0
2015-Mar-28 00:33N 40°41' W 074°05'0 0.0
2015-Mar-27 23:34N 40°41' W 074°05'0 0.0
2015-Mar-27 22:34N 40°41' W 074°05'0 0.0
2015-Mar-27 21:33N 40°41' W 074°05'0 0.0
2015-Mar-27 20:33N 40°41' W 074°05'0 0.0
2015-Mar-27 19:33N 40°41' W 074°05'0 0.0
2015-Mar-27 18:33N 40°41' W 074°05'0 0.0
2015-Mar-27 17:33N 40°41' W 074°05'0 0.0
2015-Mar-27 16:33N 40°41' W 074°05'0 0.0
2015-Mar-27 15:33N 40°41' W 074°05'0 0.0
2015-Mar-27 14:33N 40°41' W 074°05'3 2.7
2015-Mar-27 13:33N 40°41' W 074°01'8 6.5
2015-Mar-27 12:15N 40°47' W 073°54'0 0.4
2015-Mar-27 11:24N 40°47' W 073°54'1 0.6
2015-Mar-27 09:17N 40°48' W 073°54'5 6.3
2015-Mar-27 08:33N 40°45' W 073°58'6 6.4
2015-Mar-27 07:33N 40°40' W 074°03'1 1.4
2015-Mar-27 06:33N 40°41' W 074°05'0 0.0
2015-Mar-27 05:33N 40°41' W 074°05'0 0.0
2015-Mar-27 04:33N 40°41' W 074°05'0 0.0
2015-Mar-27 03:33N 40°41' W 074°05'0 0.0
2015-Mar-27 02:33N 40°41' W 074°05'0 0.0
2015-Mar-27 01:33N 40°41' W 074°05'0 0.0
2015-Mar-27 00:33N 40°41' W 074°05'0 0.0
2015-Mar-26 23:33N 40°41' W 074°05'0 0.0
2015-Mar-26 22:33N 40°41' W 074°05'0 0.0
2015-Mar-26 21:33N 40°41' W 074°05'0 0.1
2015-Mar-26 20:33N 40°41' W 074°05'0 0.1
2015-Mar-26 19:33N 40°41' W 074°05'0 0.0
2015-Mar-26 18:33N 40°41' W 074°05'0 0.0
2015-Mar-26 17:33N 40°41' W 074°05'0 0.0
2015-Mar-26 16:34N 40°41' W 074°05'0 0.0
2015-Mar-26 15:33N 40°41' W 074°05'0 0.0
2015-Mar-26 14:33N 40°41' W 074°05'0 0.0
2015-Mar-26 13:33N 40°41' W 074°05'0 0.0
2015-Mar-26 12:33N 40°41' W 074°05'0 0.0
2015-Mar-26 11:33N 40°41' W 074°05'0 0.1
2015-Mar-26 10:33N 40°41' W 074°05'0 0.0
2015-Mar-26 09:33N 40°41' W 074°05'0 0.0
2015-Mar-26 08:33N 40°41' W 074°05'0 0.0
2015-Mar-26 07:33N 40°41' W 074°05'0 0.0
2015-Mar-26 06:33N 40°41' W 074°05'0 0.0
2015-Mar-26 05:33N 40°41' W 074°05'0 0.0
2015-Mar-26 04:33N 40°41' W 074°05'0 0.0
2015-Mar-26 03:33N 40°41' W 074°05'0 0.0
2015-Mar-26 02:33N 40°41' W 074°05'0 0.0
2015-Mar-26 01:33N 40°41' W 074°05'0 0.0
2015-Mar-26 00:33N 40°41' W 074°05'0 0.0
2015-Mar-25 23:33N 40°41' W 074°05'0 0.0
2015-Mar-25 22:33N 40°41' W 074°05'0 0.0
2015-Mar-25 21:33N 40°41' W 074°05'0 0.0
2015-Mar-25 20:33N 40°41' W 074°05'0 0.0
2015-Mar-25 19:33N 40°41' W 074°05'0 0.0
2015-Mar-25 18:33N 40°41' W 074°05'0 0.0
2015-Mar-25 17:33N 40°41' W 074°05'0 0.0
2015-Mar-25 16:33N 40°41' W 074°05'0 0.0
2015-Mar-25 15:33N 40°41' W 074°05'0 0.0
2015-Mar-25 14:33N 40°41' W 074°05'0 0.0
2015-Mar-25 13:33N 40°41' W 074°05'0 0.0
2015-Mar-25 12:33N 40°41' W 074°05'0 0.0
2015-Mar-25 11:33N 40°41' W 074°05'2 2.3
2015-Mar-25 10:33N 40°38' W 074°03'5 5.1
2015-Mar-25 09:33N 40°34' W 074°01'7 5.8
2015-Mar-25 08:22N 40°28' W 073°57'15 6.7
2015-Mar-25 06:12N 40°13' W 073°58'12 6.8
2015-Mar-25 04:25N 40°01' W 074°00'6 6.6
2015-Mar-25 03:31N 39°55' W 074°01'7 6.8
2015-Mar-25 02:33N 39°49' W 074°03'7 6.6
2015-Mar-25 01:33N 39°42' W 074°06'7 6.6
2015-Mar-25 00:33N 39°36' W 074°09'8 1.7
2015-Mar-24 19:33N 39°29' W 074°13'8 7.6
2015-Mar-24 18:33N 39°36' W 074°09'8 8.0
2015-Mar-24 17:33N 39°43' W 074°05'8 8.0
2015-Mar-24 16:33N 39°51' W 074°02'39 7.3
2015-Mar-24 11:12N 40°29' W 073°55'7 7.6
2015-Mar-24 10:15N 40°34' W 074°02'6 8.1
2015-Mar-24 09:33N 40°40' W 074°03'7 6.9
2015-Mar-24 08:33N 40°45' W 073°58'21 7.2
2015-Mar-24 05:33N 40°58' W 073°35'8 7.9
2015-Mar-24 04:33N 41°02' W 073°26'8 8.1
2015-Mar-24 03:33N 41°04' W 073°16'8 8.1
2015-Mar-24 02:33N 41°06' W 073°05'8 7.9
2015-Mar-24 01:34N 41°08' W 072°55'8 7.9
2015-Mar-24 00:33N 41°10' W 072°45'8 7.8
2015-Mar-23 23:34N 41°12' W 072°35'7 7.2
2015-Mar-23 22:33N 41°13' W 072°25'6 6.4
2015-Mar-23 21:33N 41°13' W 072°17'4 4.1
2015-Mar-23 20:34N 41°14' W 072°11'5 4.6
2015-Mar-23 19:34N 41°15' W 072°05'5 5.2
2015-Mar-23 18:33N 41°15' W 071°58'6 6.3
2015-Mar-23 17:33N 41°17' W 071°50'6 6.5
2015-Mar-23 16:34N 41°19' W 071°42'6 6.2
2015-Mar-23 15:34N 41°20' W 071°34'6 6.0
2015-Mar-23 14:33N 41°23' W 071°27'7 6.6
2015-Mar-23 13:32N 41°30' W 071°25'5 5.6
2015-Mar-23 12:34N 41°35' W 071°24'0 0.4
2015-Mar-23 11:33N 41°35' W 071°24'6 4.6
2015-Mar-23 10:15N 41°29' W 071°25'4 5.7
2015-Mar-23 09:33N 41°25' W 071°26'6 5.7
2015-Mar-23 08:34N 41°21' W 071°30'7 6.8
2015-Mar-23 07:33N 41°19' W 071°39'7 7.2
2015-Mar-23 06:33N 41°17' W 071°48'7 7.5
2015-Mar-23 05:34N 41°15' W 071°58'7 6.7
2015-Mar-23 04:34N 41°15' W 072°07'6 6.0
2015-Mar-23 03:33N 41°14' W 072°15'6 5.8
2015-Mar-23 02:34N 41°13' W 072°22'5 5.4
2015-Mar-23 01:33N 41°13' W 072°29'5 5.5
2015-Mar-23 00:33N 41°11' W 072°36'6 6.0
2015-Mar-22 23:33N 41°10' W 072°44'7 6.6
2015-Mar-22 22:33N 41°09' W 072°53'10 6.8
2015-Mar-22 21:05N 41°07' W 073°06'4 7.4
2015-Mar-22 20:32N 41°06' W 073°11'7 6.9
2015-Mar-22 19:33N 41°03' W 073°19'7 6.5
2015-Mar-22 18:33N 41°01' W 073°27'8 6.1
2015-Mar-22 17:16N 40°58' W 073°37'20 5.3
2015-Mar-22 13:33N 40°45' W 073°57'7 7.3
2015-Mar-22 12:33N 40°40' W 074°03'1 1.4
2015-Mar-22 11:33N 40°41' W 074°04'0 0.0
2015-Mar-22 10:33N 40°41' W 074°04'0 0.0
2015-Mar-22 09:33N 40°41' W 074°04'0 0.0
2015-Mar-22 08:33N 40°41' W 074°04'0 0.0
2015-Mar-22 07:33N 40°41' W 074°04'0 0.0
2015-Mar-22 06:34N 40°41' W 074°04'0 0.0
2015-Mar-22 05:33N 40°41' W 074°04'0 0.0
2015-Mar-22 04:33N 40°41' W 074°04'0 0.0
2015-Mar-22 03:33N 40°41' W 074°04'0 0.0
2015-Mar-22 02:33N 40°41' W 074°04'0 0.0
2015-Mar-22 01:33N 40°41' W 074°04'0 0.0
2015-Mar-22 00:34N 40°41' W 074°04'0 0.0
2015-Mar-21 23:33N 40°41' W 074°04'0 0.0
2015-Mar-21 22:33N 40°41' W 074°04'0 0.0
2015-Mar-21 21:33N 40°41' W 074°04'0 0.0
2015-Mar-21 20:33N 40°41' W 074°04'0 0.0
2015-Mar-21 19:33N 40°41' W 074°04'0 0.1
2015-Mar-21 18:33N 40°41' W 074°05'0 0.0
2015-Mar-21 17:33N 40°41' W 074°05'0 0.0
2015-Mar-21 16:33N 40°41' W 074°05'0 0.0
2015-Mar-21 15:34N 40°41' W 074°05'0 0.0
2015-Mar-21 14:33N 40°41' W 074°05'0 0.0
2015-Mar-21 13:33N 40°41' W 074°05'0 0.0
2015-Mar-21 12:33N 40°41' W 074°05'0 0.0
2015-Mar-21 11:33N 40°41' W 074°05'0 0.0
2015-Mar-21 10:33N 40°41' W 074°05'0 0.0
2015-Mar-21 09:33N 40°41' W 074°05'0 0.0
2015-Mar-21 08:33N 40°41' W 074°05'0 0.0
2015-Mar-21 07:33N 40°41' W 074°05'0 0.0
2015-Mar-21 06:33N 40°41' W 074°05'0 0.0
2015-Mar-21 05:33N 40°41' W 074°05'0 0.0
2015-Mar-21 04:34N 40°41' W 074°05'0 0.0
2015-Mar-21 03:33N 40°41' W 074°04'0 0.0
2015-Mar-21 02:33N 40°41' W 074°05'0 0.0
2015-Mar-21 01:33N 40°41' W 074°05'0 0.0
2015-Mar-21 00:33N 40°41' W 074°05'0 0.0
2015-Mar-20 23:33N 40°41' W 074°05'0 0.0
2015-Mar-20 22:33N 40°41' W 074°05'0 0.0
2015-Mar-20 21:33N 40°41' W 074°05'0 0.0
2015-Mar-20 20:33N 40°41' W 074°05'0 0.0
2015-Mar-20 19:33N 40°41' W 074°05'0 0.0
2015-Mar-20 18:33N 40°41' W 074°05'0 0.0
2015-Mar-20 17:33N 40°41' W 074°05'0 0.0
2015-Mar-20 16:33N 40°41' W 074°05'0 0.0
2015-Mar-20 15:33N 40°41' W 074°05'0 0.0
2015-Mar-20 14:32N 40°41' W 074°05'0 0.0
2015-Mar-20 13:30N 40°41' W 074°05'0 0.2
2015-Mar-20 12:33N 40°40' W 074°04'0 0.1
2015-Mar-20 11:34N 40°41' W 074°04'0 0.1
2015-Mar-20 10:33N 40°41' W 074°05'0 0.0
2015-Mar-20 09:33N 40°41' W 074°05'0 0.0
2015-Mar-20 08:33N 40°41' W 074°05'0 0.0
2015-Mar-20 07:33N 40°41' W 074°05'0 0.0
2015-Mar-20 06:33N 40°41' W 074°05'0 0.0
2015-Mar-20 05:32N 40°41' W 074°05'0 0.0
2015-Mar-20 04:33N 40°41' W 074°05'0 0.0
2015-Mar-20 03:33N 40°41' W 074°05'0 0.0
2015-Mar-20 02:33N 40°41' W 074°05'0 0.0
2015-Mar-20 01:33N 40°41' W 074°05'0 0.0
2015-Mar-20 00:33N 40°41' W 074°05'0 0.0
2015-Mar-19 23:33N 40°41' W 074°05'0 0.0
2015-Mar-19 22:33N 40°41' W 074°05'0 0.0
2015-Mar-19 21:33N 40°41' W 074°05'0 0.0
2015-Mar-19 20:33N 40°41' W 074°05'0 0.0
2015-Mar-19 19:33N 40°41' W 074°05'0 0.0
2015-Mar-19 18:33N 40°41' W 074°05'0 0.0
2015-Mar-19 17:33N 40°41' W 074°05'0 0.0
2015-Mar-19 16:33N 40°41' W 074°05'0 0.0
2015-Mar-19 15:33N 40°41' W 074°05'0 0.0
2015-Mar-19 14:33N 40°41' W 074°05'0 0.0
2015-Mar-19 13:33N 40°41' W 074°05'0 0.0
2015-Mar-19 12:33N 40°41' W 074°05'0 0.0
2015-Mar-19 11:33N 40°41' W 074°05'0 0.0
2015-Mar-19 10:33N 40°41' W 074°05'0 0.0
2015-Mar-19 09:33N 40°41' W 074°05'0 0.0
2015-Mar-19 08:33N 40°41' W 074°05'0 0.0
2015-Mar-19 07:33N 40°41' W 074°05'0 0.0
2015-Mar-19 06:34N 40°41' W 074°05'0 0.0
2015-Mar-19 05:34N 40°41' W 074°05'0 0.0
2015-Mar-19 04:32N 40°41' W 074°05'0 0.0
2015-Mar-19 03:33N 40°41' W 074°05'0 0.0
2015-Mar-19 02:33N 40°41' W 074°05'0 0.0
2015-Mar-19 01:33N 40°41' W 074°05'0 0.0
2015-Mar-19 00:33N 40°41' W 074°05'0 0.0
2015-Mar-18 23:33N 40°41' W 074°05'0 0.0
2015-Mar-18 22:33N 40°41' W 074°05'0 0.0
2015-Mar-18 21:33N 40°41' W 074°05'0 0.0
2015-Mar-18 20:33N 40°41' W 074°05'0 0.0
2015-Mar-18 19:33N 40°41' W 074°05'0 0.0
2015-Mar-18 18:33N 40°41' W 074°05'0 0.0
2015-Mar-18 17:33N 40°41' W 074°05'0 0.0
2015-Mar-18 16:33N 40°41' W 074°05'7 6.8
2015-Mar-18 15:31N 40°34' W 074°02'11 8.3
2015-Mar-18 14:09N 40°23' W 073°57'1010.3
2015-Mar-18 13:10N 40°13' W 073°57'  
Track history (hours):
 
Tides and Currents Weather Stations Pressure Air Temp Water Temp Dewpoint Dewpoint Depression Visibility Wind Speed Wind Dir Waves Ship Positions

Alexandra

Owner: Weeks Marine, Inc., Cranford, NJ. More information available from US FCC via Universal Licensing System and Coast Guard Vessel Documentation Center.

Last reported at 2015-Mar-28 11:33 UTC. Time now 2015-Mar-28 12:20 UTC.
Position N 40°41' W 074°05'.

Length 40 m; draft 5 m.

Type: Tug. MMSI: 367161950.

Date/timePositionNaut miles runAvg speedWind from/ knotsBaromVisibWave heightAir tempDewpointWater temp
2015-Mar-28 11:33N 40°41' W 074°05'0 0.0
2015-Mar-28 10:33N 40°41' W 074°05'0 0.0
2015-Mar-28 09:34N 40°41' W 074°05'0 0.0
2015-Mar-28 08:33N 40°41' W 074°05'0 0.0
2015-Mar-28 07:33N 40°41' W 074°05'0 0.0
2015-Mar-28 06:33N 40°41' W 074°05'0 0.0
2015-Mar-28 05:33N 40°41' W 074°05'0 0.0
2015-Mar-28 04:33N 40°41' W 074°05'0 0.0
2015-Mar-28 03:33N 40°41' W 074°05'0 0.0
2015-Mar-28 02:33N 40°41' W 074°05'0 0.0
2015-Mar-28 01:34N 40°41' W 074°05'0 0.0
2015-Mar-28 00:33N 40°41' W 074°05'0 0.0
2015-Mar-27 23:34N 40°41' W 074°05'0 0.0
2015-Mar-27 22:34N 40°41' W 074°05'0 0.0
2015-Mar-27 21:33N 40°41' W 074°05'0 0.0
2015-Mar-27 20:33N 40°41' W 074°05'0 0.0
2015-Mar-27 19:33N 40°41' W 074°05'0 0.0
2015-Mar-27 18:33N 40°41' W 074°05'0 0.0
2015-Mar-27 17:33N 40°41' W 074°05'0 0.0
2015-Mar-27 16:33N 40°41' W 074°05'0 0.0
2015-Mar-27 15:33N 40°41' W 074°05'0 0.0
2015-Mar-27 14:33N 40°41' W 074°05'3 2.7
2015-Mar-27 13:33N 40°41' W 074°01'8 6.5
2015-Mar-27 12:15N 40°47' W 073°54'0 0.4
2015-Mar-27 11:24N 40°47' W 073°54'1 0.6
2015-Mar-27 09:17N 40°48' W 073°54'5 6.3
2015-Mar-27 08:33N 40°45' W 073°58'6 6.4
2015-Mar-27 07:33N 40°40' W 074°03'1 1.4
2015-Mar-27 06:33N 40°41' W 074°05'0 0.0
2015-Mar-27 05:33N 40°41' W 074°05'0 0.0
2015-Mar-27 04:33N 40°41' W 074°05'0 0.0
2015-Mar-27 03:33N 40°41' W 074°05'0 0.0
2015-Mar-27 02:33N 40°41' W 074°05'0 0.0
2015-Mar-27 01:33N 40°41' W 074°05'0 0.0
2015-Mar-27 00:33N 40°41' W 074°05'0 0.0
2015-Mar-26 23:33N 40°41' W 074°05'0 0.0
2015-Mar-26 22:33N 40°41' W 074°05'0 0.0
2015-Mar-26 21:33N 40°41' W 074°05'0 0.1
2015-Mar-26 20:33N 40°41' W 074°05'0 0.1
2015-Mar-26 19:33N 40°41' W 074°05'0 0.0
2015-Mar-26 18:33N 40°41' W 074°05'0 0.0
2015-Mar-26 17:33N 40°41' W 074°05'0 0.0
2015-Mar-26 16:34N 40°41' W 074°05'0 0.0
2015-Mar-26 15:33N 40°41' W 074°05'0 0.0
2015-Mar-26 14:33N 40°41' W 074°05'0 0.0
2015-Mar-26 13:33N 40°41' W 074°05'0 0.0
2015-Mar-26 12:33N 40°41' W 074°05'0 0.0
2015-Mar-26 11:33N 40°41' W 074°05'0 0.1
2015-Mar-26 10:33N 40°41' W 074°05'0 0.0
2015-Mar-26 09:33N 40°41' W 074°05'0 0.0
2015-Mar-26 08:33N 40°41' W 074°05'0 0.0
2015-Mar-26 07:33N 40°41' W 074°05'0 0.0
2015-Mar-26 06:33N 40°41' W 074°05'0 0.0
2015-Mar-26 05:33N 40°41' W 074°05'0 0.0
2015-Mar-26 04:33N 40°41' W 074°05'0 0.0
2015-Mar-26 03:33N 40°41' W 074°05'0 0.0
2015-Mar-26 02:33N 40°41' W 074°05'0 0.0
2015-Mar-26 01:33N 40°41' W 074°05'0 0.0
2015-Mar-26 00:33N 40°41' W 074°05'0 0.0
2015-Mar-25 23:33N 40°41' W 074°05'0 0.0
2015-Mar-25 22:33N 40°41' W 074°05'0 0.0
2015-Mar-25 21:33N 40°41' W 074°05'0 0.0
2015-Mar-25 20:33N 40°41' W 074°05'0 0.0
2015-Mar-25 19:33N 40°41' W 074°05'0 0.0
2015-Mar-25 18:33N 40°41' W 074°05'0 0.0
2015-Mar-25 17:33N 40°41' W 074°05'0 0.0
2015-Mar-25 16:33N 40°41' W 074°05'0 0.0
2015-Mar-25 15:33N 40°41' W 074°05'0 0.0
2015-Mar-25 14:33N 40°41' W 074°05'0 0.0
2015-Mar-25 13:33N 40°41' W 074°05'0 0.0
2015-Mar-25 12:33N 40°41' W 074°05'0 0.0
2015-Mar-25 11:33N 40°41' W 074°05'2 2.3
2015-Mar-25 10:33N 40°38' W 074°03'5 5.1
2015-Mar-25 09:33N 40°34' W 074°01'7 5.8
2015-Mar-25 08:22N 40°28' W 073°57'15 6.7
2015-Mar-25 06:12N 40°13' W 073°58'12 6.8
2015-Mar-25 04:25N 40°01' W 074°00'6 6.6
2015-Mar-25 03:31N 39°55' W 074°01'7 6.8
2015-Mar-25 02:33N 39°49' W 074°03'7 6.6
2015-Mar-25 01:33N 39°42' W 074°06'7 6.6
2015-Mar-25 00:33N 39°36' W 074°09'8 1.7
2015-Mar-24 19:33N 39°29' W 074°13'8 7.6
2015-Mar-24 18:33N 39°36' W 074°09'8 8.0
2015-Mar-24 17:33N 39°43' W 074°05'8 8.0
2015-Mar-24 16:33N 39°51' W 074°02'39 7.3
2015-Mar-24 11:12N 40°29' W 073°55'7 7.6
2015-Mar-24 10:15N 40°34' W 074°02'6 8.1
2015-Mar-24 09:33N 40°40' W 074°03'7 6.9
2015-Mar-24 08:33N 40°45' W 073°58'21 7.2
2015-Mar-24 05:33N 40°58' W 073°35'8 7.9
2015-Mar-24 04:33N 41°02' W 073°26'8 8.1
2015-Mar-24 03:33N 41°04' W 073°16'8 8.1
2015-Mar-24 02:33N 41°06' W 073°05'8 7.9
2015-Mar-24 01:34N 41°08' W 072°55'8 7.9
2015-Mar-24 00:33N 41°10' W 072°45'8 7.8
2015-Mar-23 23:34N 41°12' W 072°35'7 7.2
2015-Mar-23 22:33N 41°13' W 072°25'6 6.4
2015-Mar-23 21:33N 41°13' W 072°17'4 4.1
2015-Mar-23 20:34N 41°14' W 072°11'5 4.6
2015-Mar-23 19:34N 41°15' W 072°05'5 5.2
2015-Mar-23 18:33N 41°15' W 071°58'6 6.3
2015-Mar-23 17:33N 41°17' W 071°50'6 6.5
2015-Mar-23 16:34N 41°19' W 071°42'6 6.2
2015-Mar-23 15:34N 41°20' W 071°34'6 6.0
2015-Mar-23 14:33N 41°23' W 071°27'7 6.6
2015-Mar-23 13:32N 41°30' W 071°25'5 5.6
2015-Mar-23 12:34N 41°35' W 071°24'0 0.4
2015-Mar-23 11:33N 41°35' W 071°24'6 4.6
2015-Mar-23 10:15N 41°29' W 071°25'4 5.7
2015-Mar-23 09:33N 41°25' W 071°26'6 5.7
2015-Mar-23 08:34N 41°21' W 071°30'7 6.8
2015-Mar-23 07:33N 41°19' W 071°39'7 7.2
2015-Mar-23 06:33N 41°17' W 071°48'7 7.5
2015-Mar-23 05:34N 41°15' W 071°58'7 6.7
2015-Mar-23 04:34N 41°15' W 072°07'6 6.0
2015-Mar-23 03:33N 41°14' W 072°15'6 5.8
2015-Mar-23 02:34N 41°13' W 072°22'5 5.4
2015-Mar-23 01:33N 41°13' W 072°29'5 5.5
2015-Mar-23 00:33N 41°11' W 072°36'6 6.0
2015-Mar-22 23:33N 41°10' W 072°44'7 6.6
2015-Mar-22 22:33N 41°09' W 072°53'10 6.8
2015-Mar-22 21:05N 41°07' W 073°06'4 7.4
2015-Mar-22 20:32N 41°06' W 073°11'7 6.9
2015-Mar-22 19:33N 41°03' W 073°19'7 6.5
2015-Mar-22 18:33N 41°01' W 073°27'8 6.1
2015-Mar-22 17:16N 40°58' W 073°37'20 5.3
2015-Mar-22 13:33N 40°45' W 073°57'7 7.3
2015-Mar-22 12:33N 40°40' W 074°03'1 1.4
2015-Mar-22 11:33N 40°41' W 074°04'0 0.0
2015-Mar-22 10:33N 40°41' W 074°04'0 0.0
2015-Mar-22 09:33N 40°41' W 074°04'0 0.0
2015-Mar-22 08:33N 40°41' W 074°04'0 0.0
2015-Mar-22 07:33N 40°41' W 074°04'0 0.0
2015-Mar-22 06:34N 40°41' W 074°04'0 0.0
2015-Mar-22 05:33N 40°41' W 074°04'0 0.0
2015-Mar-22 04:33N 40°41' W 074°04'0 0.0
2015-Mar-22 03:33N 40°41' W 074°04'0 0.0
2015-Mar-22 02:33N 40°41' W 074°04'0 0.0
2015-Mar-22 01:33N 40°41' W 074°04'0 0.0
2015-Mar-22 00:34N 40°41' W 074°04'0 0.0
2015-Mar-21 23:33N 40°41' W 074°04'0 0.0
2015-Mar-21 22:33N 40°41' W 074°04'0 0.0
2015-Mar-21 21:33N 40°41' W 074°04'0 0.0
2015-Mar-21 20:33N 40°41' W 074°04'0 0.0
2015-Mar-21 19:33N 40°41' W 074°04'0 0.1
2015-Mar-21 18:33N 40°41' W 074°05'0 0.0
2015-Mar-21 17:33N 40°41' W 074°05'0 0.0
2015-Mar-21 16:33N 40°41' W 074°05'0 0.0
2015-Mar-21 15:34N 40°41' W 074°05'0 0.0
2015-Mar-21 14:33N 40°41' W 074°05'0 0.0
2015-Mar-21 13:33N 40°41' W 074°05'0 0.0
2015-Mar-21 12:33N 40°41' W 074°05'0 0.0
2015-Mar-21 11:33N 40°41' W 074°05'0 0.0
2015-Mar-21 10:33N 40°41' W 074°05'0 0.0
2015-Mar-21 09:33N 40°41' W 074°05'0 0.0
2015-Mar-21 08:33N 40°41' W 074°05'0 0.0
2015-Mar-21 07:33N 40°41' W 074°05'0 0.0
2015-Mar-21 06:33N 40°41' W 074°05'0 0.0
2015-Mar-21 05:33N 40°41' W 074°05'0 0.0
2015-Mar-21 04:34N 40°41' W 074°05'0 0.0
2015-Mar-21 03:33N 40°41' W 074°04'0 0.0
2015-Mar-21 02:33N 40°41' W 074°05'0 0.0
2015-Mar-21 01:33N 40°41' W 074°05'0 0.0
2015-Mar-21 00:33N 40°41' W 074°05'0 0.0
2015-Mar-20 23:33N 40°41' W 074°05'0 0.0
2015-Mar-20 22:33N 40°41' W 074°05'0 0.0
2015-Mar-20 21:33N 40°41' W 074°05'0 0.0
2015-Mar-20 20:33N 40°41' W 074°05'0 0.0
2015-Mar-20 19:33N 40°41' W 074°05'0 0.0
2015-Mar-20 18:33N 40°41' W 074°05'0 0.0
2015-Mar-20 17:33N 40°41' W 074°05'0 0.0
2015-Mar-20 16:33N 40°41' W 074°05'0 0.0
2015-Mar-20 15:33N 40°41' W 074°05'0 0.0
2015-Mar-20 14:32N 40°41' W 074°05'0 0.0
2015-Mar-20 13:30N 40°41' W 074°05'0 0.2
2015-Mar-20 12:33N 40°40' W 074°04'0 0.1
2015-Mar-20 11:34N 40°41' W 074°04'0 0.1
2015-Mar-20 10:33N 40°41' W 074°05'0 0.0
2015-Mar-20 09:33N 40°41' W 074°05'0 0.0
2015-Mar-20 08:33N 40°41' W 074°05'0 0.0
2015-Mar-20 07:33N 40°41' W 074°05'0 0.0
2015-Mar-20 06:33N 40°41' W 074°05'0 0.0
2015-Mar-20 05:32N 40°41' W 074°05'0 0.0
2015-Mar-20 04:33N 40°41' W 074°05'0 0.0
2015-Mar-20 03:33N 40°41' W 074°05'0 0.0
2015-Mar-20 02:33N 40°41' W 074°05'0 0.0
2015-Mar-20 01:33N 40°41' W 074°05'0 0.0
2015-Mar-20 00:33N 40°41' W 074°05'0 0.0
2015-Mar-19 23:33N 40°41' W 074°05'0 0.0
2015-Mar-19 22:33N 40°41' W 074°05'0 0.0
2015-Mar-19 21:33N 40°41' W 074°05'0 0.0
2015-Mar-19 20:33N 40°41' W 074°05'0 0.0
2015-Mar-19 19:33N 40°41' W 074°05'0 0.0
2015-Mar-19 18:33N 40°41' W 074°05'0 0.0
2015-Mar-19 17:33N 40°41' W 074°05'0 0.0
2015-Mar-19 16:33N 40°41' W 074°05'0 0.0
2015-Mar-19 15:33N 40°41' W 074°05'0 0.0
2015-Mar-19 14:33N 40°41' W 074°05'0 0.0
2015-Mar-19 13:33N 40°41' W 074°05'0 0.0
2015-Mar-19 12:33N 40°41' W 074°05'0 0.0
2015-Mar-19 11:33N 40°41' W 074°05'0 0.0
2015-Mar-19 10:33N 40°41' W 074°05'0 0.0
2015-Mar-19 09:33N 40°41' W 074°05'0 0.0
2015-Mar-19 08:33N 40°41' W 074°05'0 0.0
2015-Mar-19 07:33N 40°41' W 074°05'0 0.0
2015-Mar-19 06:34N 40°41' W 074°05'0 0.0
2015-Mar-19 05:34N 40°41' W 074°05'0 0.0
2015-Mar-19 04:32N 40°41' W 074°05'0 0.0
2015-Mar-19 03:33N 40°41' W 074°05'0 0.0
2015-Mar-19 02:33N 40°41' W 074°05'0 0.0
2015-Mar-19 01:33N 40°41' W 074°05'0 0.0
2015-Mar-19 00:33N 40°41' W 074°05'0 0.0
2015-Mar-18 23:33N 40°41' W 074°05'0 0.0
2015-Mar-18 22:33N 40°41' W 074°05'0 0.0
2015-Mar-18 21:33N 40°41' W 074°05'0 0.0
2015-Mar-18 20:33N 40°41' W 074°05'0 0.0
2015-Mar-18 19:33N 40°41' W 074°05'0 0.0
2015-Mar-18 18:33N 40°41' W 074°05'0 0.0
2015-Mar-18 17:33N 40°41' W 074°05'0 0.0
2015-Mar-18 16:33N 40°41' W 074°05'7 6.8
2015-Mar-18 15:31N 40°34' W 074°02'11 8.3
2015-Mar-18 14:09N 40°23' W 073°57'1010.3
2015-Mar-18 13:10N 40°13' W 073°57'  

Dump ship's entire track history